Nearby METAR Reports

 

KOXC - Oxford/Waterbury, Connecticut, USA
Distance from station: SE 8mi, 12km
Updated: Fri, 19-Apr-2024 1:51pm EDT
Clear
Clear
 Wind from SSE
Wind: SSE 13 mph, 20 km/h
Temperature: 54°F, 12°C
Dew Point: 37°F, 3°C
Humidity: 54%
Barometer: 30.12 inHg, 1020 hPa
Clouds: Clear
Visibility: 10 miles, 16 km
2024/04/19 17:51 KOXC 191751Z 15011KT 10SM CLR 12/03 A3012 RMK AO2 SLP212 T01170033 10128 20067 56015
KDXR - Danbury, Connecticut, USA
Distance from station: SW 19mi, 30km
Updated: Fri, 19-Apr-2024 1:53pm EDT
Mostly cloudy
Mostly cloudy
 Wind from SE
Wind: SE 12 mph, 19 km/h
Temperature: 55°F, 13°C
Dew Point: 41°F, 5°C
Humidity: 59%
Barometer: 30.10 inHg, 1019.3 hPa
Clouds: Mostly cloudy
Visibility: 10 miles, 16 km
Cloud details: Mostly cloudy 3100 ft
2024/04/19 17:53 KDXR 191753Z 14010KT 10SM BKN031 13/05 A3010 RMK AO2 SLP194 T01330050 10139 20078 56019 $
 
KMMK - Meriden, Connecticut, USA
Distance from station: E 20mi, 33km
Updated: Fri, 19-Apr-2024 1:53pm EDT
Clear
Clear
 Wind from SSE
Wind: SSE 10 mph, 17 km/h, Gust: 24 mph, 39 km/h
Temperature: 57°F, 14°C
Dew Point: 30°F, -1°C
Humidity: 36%
Barometer: 30.11 inHg, 1019.6 hPa
Clouds: Clear
Visibility: 10 miles, 16 km
2024/04/19 17:53 KMMK 191753Z AUTO 16009G21KT 10SM CLR 14/M01 A3011 RMK AO2 SLP197 T01441011 10144 20078 58014
KBDR - Bridgeport, Connecticut, USA
Distance from station: S 27mi, 44km
Updated: Fri, 19-Apr-2024 1:52pm EDT
Clear
Clear
 Wind from E
Wind: E 14 mph, 22 km/h
Temperature: 52°F, 11°C
Dew Point: 43°F, 6°C
Humidity: 72%
Barometer: 30.13 inHg, 1020.3 hPa
Clouds: Clear
Visibility: 10 miles, 16 km
2024/04/19 17:52 KBDR 191752Z 08012KT 10SM CLR 11/06 A3013 RMK AO2 SLP201 T01060061 10111 20083 58015
 
KHVN - New Haven/Tweed, Connecticut, USA
Distance from station: SE 27mi, 44km
Updated: Fri, 19-Apr-2024 1:53pm EDT
Clear
Clear
 Wind from E
Wind: E 16 mph, 26 km/h, Gust: 23 mph, 37 km/h
Temperature: 55°F, 13°C
Dew Point: 39°F, 4°C
Humidity: 55%
Barometer: 30.12 inHg, 1020 hPa
Clouds: Clear
Visibility: 10 miles, 16 km
2024/04/19 17:53 KHVN 191753Z 10014G20KT 10SM CLR 13/04 A3012 RMK AO2 SLP200 T01280044 10133 20094 58015
KHFD - Hartford/Brainar, Connecticut, USA
Distance from station: ENE 32mi, 52km
Updated: Fri, 19-Apr-2024 1:53pm EDT
Clear
Clear
 Wind from S
Wind: S 21 mph, 33 km/h, Gust: 24 mph, 39 km/h
Temperature: 57°F, 14°C
Dew Point: 30°F, -1°C
Humidity: 36%
Barometer: 30.09 inHg, 1019 hPa
Clouds: Clear
Visibility: 10 miles, 16 km
2024/04/19 17:53 KHFD 191753Z 18018G21KT 10SM CLR 14/M01 A3009 RMK AO2 SLP190 T01441006 10156 20083 57021
 
KPOU - Poughkeepsie, New York, USA
Distance from station: W 35mi, 56km
Updated: Fri, 19-Apr-2024 1:53pm EDT
Overcast
Overcast
 Wind from SSW
Wind: SSW 8 mph, 13 km/h
Temperature: 57°F, 14°C
Dew Point: 37°F, 3°C
Humidity: 48%
Barometer: 30.07 inHg, 1018.3 hPa
Clouds: Overcast
Visibility: 10 miles, 16 km
Cloud details: Overcast 4000 ft
2024/04/19 17:53 KPOU 191753Z 20007KT 150V220 10SM OVC040 14/03 A3007 RMK AO2 SLP179 T01440033 10144 20078 56023
KBDL - Windsor Locks, Connecticut, USA
Distance from station: NE 38mi, 62km
Updated: Fri, 19-Apr-2024 1:51pm EDT
Mostly cloudy
Mostly cloudy
 Wind from S
Wind: S 14 mph, 22 km/h
Temperature: 63°F, 17°C
Dew Point: 30°F, -1°C
Humidity: 30%
Barometer: 30.09 inHg, 1019 hPa
Clouds: Mostly cloudy
Visibility: 10 miles, 16 km
Cloud details: Few Clouds 5000 ft
Few Clouds 15000 ft
Mostly cloudy 21000 ft
Mostly cloudy 25000 ft
2024/04/19 17:51 KBDL 191751Z 19012KT 10SM FEW050 FEW150 BKN210 BKN250 17/M01 A3009 RMK AO2 SLP189 T01721011 10178 20089 56025
 
KSNC - Chester, Connecticut, USA
Distance from station: ESE 39mi, 63km
Updated: Fri, 19-Apr-2024 2:15pm EDT
Few Clouds
Few Clouds
 Wind from ESE
Wind: ESE 10 mph, 17 km/h, Gust: 17 mph, 28 km/h
Temperature: 55°F, 13°C
Dew Point: 30°F, -1°C
Humidity: 38%
Barometer: 30.12 inHg, 1020 hPa
Clouds: Few Clouds
Visibility: 10 miles, 16 km
Cloud details: Few Clouds 7500 ft
Few Clouds 10000 ft
2024/04/19 18:15 KSNC 191815Z AUTO 11009G15KT 090V170 10SM FEW075 FEW100 13/M01 A3012 RMK AO2
KHPN - White Plains, New York, USA
Distance from station: SW 42mi, 67km
Updated: Fri, 19-Apr-2024 1:56pm EDT
Mostly cloudy
Mostly cloudy
 Wind from ESE
Wind: ESE 10 mph, 17 km/h
Temperature: 54°F, 12°C
Dew Point: 43°F, 6°C
Humidity: 67%
Barometer: 30.10 inHg, 1019.3 hPa
Clouds: Mostly cloudy
Visibility: 10 miles, 16 km
Cloud details: Mostly cloudy 2900 ft
2024/04/19 17:56 KHPN 191756Z 11009KT 10SM BKN029 12/06 A3010 RMK AO2 SLP193 T01220061 10133 20072 56016
 
KSWF - Newburgh/Stewart, New York, USA
Distance from station: W 45mi, 72km
Updated: Fri, 19-Apr-2024 1:45pm EDT
Overcast
Overcast
 Wind from SSW
Wind: SSW 13 mph, 20 km/h
Temperature: 55°F, 13°C
Dew Point: 39°F, 4°C
Humidity: 55%
Barometer: 30.07 inHg, 1018.3 hPa
Clouds: Overcast
Visibility: 10 miles, 16 km
Cloud details: Overcast 3000 ft
2024/04/19 17:45 KSWF 191745Z 21011KT 10SM OVC030 13/04 A3007
KBAF - Westfield, Massachusetts, USA
Distance from station: NNE 50mi, 80km
Updated: Fri, 19-Apr-2024 1:53pm EDT
Clear
Clear
 Wind from S
Wind: S 13 mph, 20 km/h, Gust: 22 mph, 35 km/h
Temperature: 59°F, 15°C
Dew Point: 30°F, -1°C
Humidity: 34%
Barometer: 30.08 inHg, 1018.6 hPa
Clouds: Clear
Visibility: 10 miles, 16 km
2024/04/19 17:53 KBAF 191753Z 17011G19KT 10SM CLR 15/M01 A3008 RMK AO2 SLP189 T01501006 10161 20078 56024